Time;durP1;ratioP1;P1;durP2;ratioP2;P2;SDS_P1;SDS_P2;PMS_P1;PMS_P2;Temp;Humidity;BMP_temperature;BMP_pressure;BME280_temperature;BME280_humidity;BME280_pressure;Samples;Min_cycle;Max_cycle;Signal;HPM_P1;HPM_P2
2023/09/03 00:06:50;;;;;;;16.23;12.48;;;;;;;17.45;72.73;101882.19;15605917;28;20065;-49
2023/09/03 00:14:23;;;;;;;14.98;12.90;;;;;;;17.57;72.22;101880.34;15600645;28;20529;-50
2023/09/03 00:21:58;;;;;;;18.45;14.35;;;;;;;17.60;72.18;101870.94;15607479;28;20045;-50
2023/09/03 00:29:35;;;;;;;22.35;16.15;;;;;;;17.59;71.59;101878.25;15613950;28;20045;-50
2023/09/03 00:37:10;;;;;;;20.33;15.35;;;;;;;16.93;74.08;101880.94;15568750;28;20092;-49
2023/09/03 00:44:43;;;;;;;18.35;13.48;;;;;;;17.13;73.75;101892.38;15587297;28;20046;-49
2023/09/03 00:52:19;;;;;;;16.75;14.02;;;;;;;17.40;72.50;101881.25;15608791;28;20037;-50
2023/09/03 00:59:53;;;;;;;16.98;13.93;;;;;;;17.38;72.58;101865.16;15613246;28;20052;-50
2023/09/03 01:07:30;;;;;;;15.40;13.80;;;;;;;17.42;72.43;101881.81;15619360;28;20045;-52
2023/09/03 01:15:13;;;;;;;16.88;14.18;;;;;;;17.51;71.59;101869.59;15601294;28;20661;-48
2023/09/03 01:23:04;;;;;;;16.00;13.98;;;;;;;17.46;71.92;101869.47;15617889;28;20048;-51
2023/09/03 01:30:39;;;;;;;18.27;14.00;;;;;;;17.32;72.63;101869.63;15596216;28;20049;-49
2023/09/03 01:38:12;;;;;;;15.18;13.38;;;;;;;17.10;72.49;101871.13;15618061;28;20049;-47
2023/09/03 01:45:54;;;;;;;19.13;14.40;;;;;;;17.42;71.12;101887.25;15613882;28;20037;-49
2023/09/03 01:53:35;;;;;;;15.95;14.15;;;;;;;17.36;71.74;101885.47;15615961;28;20402;-52
2023/09/03 02:01:12;;;;;;;21.95;14.75;;;;;;;17.28;71.44;101878.44;15610855;28;20148;-51
2023/09/03 02:08:45;;;;;;;17.33;14.40;;;;;;;17.08;71.50;101871.38;15612147;28;20083;-47
2023/09/03 02:16:20;;;;;;;18.75;15.45;;;;;;;16.88;72.11;101868.03;15605122;28;20107;-53
2023/09/03 02:23:53;;;;;;;18.58;15.23;;;;;;;16.72;72.44;101891.13;15609151;28;20462;-54
2023/09/03 02:31:28;;;;;;;;;;;;;;;16.54;72.62;101883.75;15612634;28;20124;-48
2023/09/03 02:39:01;;;;;;;17.58;14.65;;;;;;;16.58;72.74;101879.53;15604868;28;20023;-48
2023/09/03 02:46:36;;;;;;;19.08;14.57;;;;;;;16.45;72.74;101882.38;15585601;28;20033;-50
2023/09/03 02:54:10;;;;;;;20.92;15.85;;;;;;;16.40;73.03;101886.78;15602727;28;20079;-48
2023/09/03 03:01:44;;;;;;;18.38;15.55;;;;;;;16.43;72.95;101859.25;15613434;28;20049;-51
2023/09/03 03:09:18;;;;;;;21.30;16.50;;;;;;;16.45;72.89;101876.13;15610800;28;20037;-49
2023/09/03 03:16:52;;;;;;;;;;;;;;;16.33;73.29;101874.13;15607799;28;20054;-49
2023/09/03 03:24:26;;;;;;;21.67;18.55;;;;;;;16.16;74.77;101877.59;15592486;28;19928;-50
2023/09/03 03:32:01;;;;;;;20.98;18.05;;;;;;;16.38;74.50;101889.72;15610165;28;20162;-52
2023/09/03 03:39:35;;;;;;;24.67;18.45;;;;;;;16.39;75.60;101891.38;15609706;28;20462;-48
2023/09/03 03:47:10;;;;;;;18.67;16.52;;;;;;;16.49;75.45;101902.56;15603154;28;20132;-50
2023/09/03 03:54:43;;;;;;;18.38;16.30;;;;;;;16.70;74.07;101895.09;15608510;28;20090;-48
2023/09/03 04:02:18;;;;;;;18.58;14.98;;;;;;;16.81;73.30;101903.34;15607499;28;20049;-44
2023/09/03 04:09:51;;;;;;;16.60;13.82;;;;;;;16.61;73.44;101901.84;15607689;28;20025;-51
2023/09/03 04:17:26;;;;;;;;;;;;;;;16.38;73.29;101911.41;15601677;28;20075;-44
2023/09/03 04:24:59;;;;;;;14.65;11.70;;;;;;;16.17;74.05;101934.25;15607808;28;19960;-47
2023/09/03 04:32:34;;;;;;;12.48;10.48;;;;;;;16.32;72.98;101929.38;15600665;28;20437;-46
2023/09/03 04:40:09;;;;;;;10.68;9.52;;;;;;;16.33;72.48;101939.16;15598616;28;20029;-43
2023/09/03 04:47:44;;;;;;;10.00;8.88;;;;;;;16.22;72.20;101942.56;15589849;28;20041;-47
2023/09/03 04:55:19;;;;;;;13.75;9.45;;;;;;;16.17;72.62;101957.81;15607585;28;20107;-44
2023/09/03 05:02:55;;;;;;;13.45;8.65;;;;;;;16.27;71.70;101969.84;15590328;28;20075;-44
2023/09/03 05:10:28;;;;;;;9.95;7.80;;;;;;;16.32;71.77;101980.03;15598979;28;20045;-44
2023/09/03 05:18:03;;;;;;;11.55;7.40;;;;;;;16.25;71.34;101993.59;15616440;28;20124;-49
2023/09/03 05:25:37;;;;;;;9.18;7.03;;;;;;;16.27;71.15;102002.38;15617192;28;20370;-46
2023/09/03 05:33:12;;;;;;;7.47;6.68;;;;;;;16.74;70.63;101997.50;15617209;28;20455;-47
2023/09/03 05:40:45;;;;;;;7.75;6.50;;;;;;;16.50;71.15;102014.50;15592748;28;20131;-49
2023/09/03 05:48:20;;;;;;;9.50;5.97;;;;;;;16.27;72.71;102010.50;15616178;28;20049;-49
2023/09/03 05:55:55;;;;;;;8.52;5.80;;;;;;;16.61;70.98;102013.81;15615621;28;20494;-46
2023/09/03 06:03:29;;;;;;;9.57;5.40;;;;;;;16.67;71.48;102064.44;15608991;28;20041;-45
2023/09/03 06:11:04;;;;;;;9.05;5.22;;;;;;;16.64;71.41;102073.00;15615518;28;20045;-50
2023/09/03 06:18:42;;;;;;;12.32;5.00;;;;;;;16.70;71.95;102088.41;15583313;28;20065;-47
2023/09/03 06:26:15;;;;;;;7.13;5.05;;;;;;;16.52;71.86;102108.13;15611888;28;20125;-49
2023/09/03 06:33:50;;;;;;;6.78;4.50;;;;;;;16.55;72.50;102102.28;15606650;28;20436;-45
2023/09/03 06:41:23;;;;;;;6.75;4.75;;;;;;;17.08;70.38;102106.56;15612531;28;20158;-47
2023/09/03 06:48:57;;;;;;;;;;;;;;;17.63;68.84;102095.84;15612619;28;20140;-46
2023/09/03 06:56:30;;;;;;;8.13;4.93;;;;;;;17.65;68.36;102101.06;15593065;28;19975;-45
2023/09/03 07:04:06;;;;;;;8.25;4.38;;;;;;;17.65;66.59;102118.16;15607387;28;20050;-48
2023/09/03 07:11:40;;;;;;;10.20;3.28;;;;;;;17.72;65.35;102156.13;15610748;28;20033;-49
2023/09/03 07:19:14;;;;;;;5.10;2.80;;;;;;;18.32;64.25;102142.75;15609545;28;20475;-45
2023/09/03 07:26:47;;;;;;;8.27;2.90;;;;;;;18.13;62.90;102147.38;15610101;28;20065;-51
2023/09/03 07:34:22;;;;;;;3.53;1.92;;;;;;;18.41;62.72;102165.03;15611136;28;20049;-45
2023/09/03 07:41:56;;;;;;;3.70;1.83;;;;;;;18.33;63.01;102156.16;15609128;28;20057;-47
2023/09/03 07:49:30;;;;;;;3.45;1.75;;;;;;;19.22;59.78;102140.09;15608615;28;20497;-46
2023/09/03 07:57:06;;;;;;;4.03;1.83;;;;;;;18.91;61.18;102153.97;15608602;28;20046;-47
2023/09/03 08:04:43;;;;;;;5.80;1.95;;;;;;;18.73;61.26;102155.66;15608174;28;20041;-49
2023/09/03 08:12:18;;;;;;;4.38;1.65;;;;;;;18.85;58.80;102189.19;15608306;28;20053;-47
2023/09/03 08:19:53;;;;;;;4.22;1.75;;;;;;;18.99;59.83;102202.63;15605369;28;20117;-45
2023/09/03 08:27:26;;;;;;;5.45;1.70;;;;;;;19.69;58.88;102185.66;15597892;28;20072;-43
2023/09/03 08:35:00;;;;;;;3.03;1.30;;;;;;;19.78;58.50;102176.06;15607398;28;20430;-47
2023/09/03 08:42:34;;;;;;;4.28;1.25;;;;;;;19.34;58.05;102180.94;15602734;28;20046;-52
2023/09/03 08:50:10;;;;;;;4.55;1.48;;;;;;;20.12;56.94;102180.66;15606102;28;20096;-49
2023/09/03 08:57:44;;;;;;;4.13;1.25;;;;;;;20.24;55.90;102174.38;15585590;28;20046;-45
2023/09/03 09:05:19;;;;;;;3.75;1.40;;;;;;;19.70;55.71;102160.88;15618895;28;20325;-50
2023/09/03 09:12:57;;;;;;;6.57;1.27;;;;;;;20.13;55.08;102155.03;15601365;28;20436;-46
2023/09/03 09:20:35;;;;;;;4.95;1.20;;;;;;;20.11;55.48;102167.28;15605959;28;20562;-46
2023/09/03 09:28:12;;;;;;;2.35;1.15;;;;;;;20.33;52.81;102162.00;15615022;28;20136;-44
2023/09/03 09:35:50;;;;;;;2.95;1.38;;;;;;;20.21;54.37;102172.94;15618774;28;20053;-47
2023/09/03 09:43:23;;;;;;;5.10;1.30;;;;;;;20.18;54.49;102181.59;15594099;28;20050;-47
2023/09/03 09:50:58;;;;;;;2.03;0.90;;;;;;;20.43;54.33;102186.78;15617651;28;20359;-52
2023/09/03 09:58:36;;;;;;;3.58;1.10;;;;;;;20.47;54.36;102179.81;15617305;28;20451;-55
2023/09/03 10:06:14;;;;;;;5.72;1.02;;;;;;;19.68;51.41;102189.41;15606727;28;20057;-56
2023/09/03 10:13:48;;;;;;;2.58;1.10;;;;;;;21.26;52.14;102181.81;15595167;28;20115;-52
2023/09/03 10:21:25;;;;;;;3.88;1.00;;;;;;;21.18;51.27;102177.59;15601028;28;20590;-52
2023/09/03 10:29:04;;;;;;;5.90;2.08;;;;;;;20.82;52.95;102171.47;15608230;28;20388;-53
2023/09/03 10:36:38;;;;;;;3.33;0.82;;;;;;;20.97;49.38;102187.31;15609463;28;20052;-55
2023/09/03 10:44:16;;;;;;;2.25;1.00;;;;;;;21.08;49.17;102191.91;15597560;28;20053;-56
2023/09/03 10:51:51;;;;;;;2.72;1.17;;;;;;;20.83;48.24;102191.41;15588843;28;20562;-50
2023/09/03 10:59:24;;;;;;;1.38;0.75;;;;;;;21.63;48.36;102191.22;15613502;28;20046;-53
2023/09/03 11:07:23;;;;;;;5.43;1.08;;;;;;;22.79;44.98;102193.09;15605151;28;20034;-54
2023/09/03 11:14:58;;;;;;;2.87;0.90;;;;;;;23.46;44.13;102191.88;15608706;28;20358;-49
2023/09/03 11:22:37;;;;;;;2.95;1.08;;;;;;;23.00;42.81;102205.16;15610502;28;20069;-50
2023/09/03 11:30:10;;;;;;;3.00;0.88;;;;;;;23.36;41.54;102189.88;15594160;28;20356;-53
2023/09/03 11:37:45;;;;;;;2.58;1.00;;;;;;;23.20;43.90;102200.94;15611118;28;20474;-50
2023/09/03 11:45:18;;;;;;;2.40;0.80;;;;;;;22.58;45.79;102213.13;15589331;28;20391;-51
2023/09/03 11:52:56;;;;;;;5.18;0.70;;;;;;;22.72;46.58;102217.13;15584308;28;20458;-53
2023/09/03 12:00:31;;;;;;;4.78;0.88;;;;;;;23.55;42.87;102216.88;15607531;28;20057;-53
2023/09/03 12:08:07;;;;;;;1.90;0.75;;;;;;;23.16;44.28;102245.28;15608508;28;20154;-54
2023/09/03 12:15:40;;;;;;;3.03;1.00;;;;;;;22.30;43.73;102238.75;15593496;28;20487;-51
2023/09/03 12:23:16;;;;;;;2.45;0.90;;;;;;;23.25;44.10;102242.09;15606081;28;20137;-47
2023/09/03 12:30:57;;;;;;;2.30;0.90;;;;;;;23.83;41.68;102234.97;15621115;28;20091;-51
2023/09/03 12:38:32;;;;;;;2.80;1.10;;;;;;;23.85;42.19;102244.56;15603711;28;20037;-53
2023/09/03 12:46:05;;;;;;;3.75;1.08;;;;;;;24.68;40.77;102239.31;15612966;28;20132;-52
2023/09/03 12:53:41;;;;;;;2.17;0.90;;;;;;;24.41;40.75;102244.13;15602830;28;20054;-54
2023/09/03 13:01:15;;;;;;;2.20;0.90;;;;;;;23.21;41.11;102244.50;15594006;28;20041;-50
2023/09/03 13:08:50;;;;;;;3.70;0.90;;;;;;;23.36;42.43;102241.94;15605623;28;20066;-52
2023/09/03 13:16:27;;;;;;;2.85;0.90;;;;;;;24.03;42.64;102231.53;15600919;28;20069;-53
2023/09/03 13:24:01;;;;;;;1.75;0.60;;;;;;;23.09;42.71;102236.47;15618632;28;20068;-55
2023/09/03 13:31:35;;;;;;;2.00;1.10;;;;;;;23.76;41.88;102232.44;15616705;28;20401;-50
2023/09/03 13:39:09;;;;;;;5.45;0.85;;;;;;;23.63;42.18;102230.09;15617659;28;20067;-54
2023/09/03 13:46:43;;;;;;;3.42;1.00;;;;;;;23.74;41.70;102229.13;15616561;28;20052;-56
2023/09/03 13:54:17;;;;;;;3.13;1.10;;;;;;;23.32;42.54;102249.03;15617512;28;20471;-52
2023/09/03 14:01:50;;;;;;;4.43;1.13;;;;;;;22.94;43.91;102249.13;15616341;28;20041;-55
2023/09/03 14:09:25;;;;;;;4.88;1.20;;;;;;;22.48;45.50;102260.34;15616590;28;20050;-51
2023/09/03 14:16:58;;;;;;;2.72;1.10;;;;;;;22.13;47.67;102271.59;15607297;28;20038;-51
2023/09/03 14:24:35;;;;;;;2.03;1.08;;;;;;;22.58;46.06;102268.69;15615055;28;20058;-55
2023/09/03 14:32:09;;;;;;;2.30;1.10;;;;;;;22.37;46.74;102253.06;15614251;28;20045;-52
2023/09/03 14:39:43;;;;;;;2.58;1.23;;;;;;;22.24;45.57;102256.13;15597763;28;20426;-55
2023/09/03 14:47:17;;;;;;;2.88;1.15;;;;;;;22.73;47.20;102237.09;15610621;28;20038;-54
2023/09/03 14:54:52;;;;;;;1.98;1.27;;;;;;;22.58;45.15;102233.09;15576093;28;20072;-56
2023/09/03 15:02:25;;;;;;;2.40;1.27;;;;;;;22.34;46.96;102243.47;15581469;28;20050;-50
2023/09/03 15:10:00;;;;;;;2.53;1.30;;;;;;;21.95;46.34;102241.75;15600726;28;20041;-51
2023/09/03 15:17:33;;;;;;;3.50;1.17;;;;;;;22.26;46.81;102257.56;15604193;28;20052;-53
2023/09/03 15:25:08;;;;;;;3.95;1.05;;;;;;;21.65;47.79;102245.66;15611963;28;20061;-52
2023/09/03 15:32:42;;;;;;;4.32;1.23;;;;;;;21.45;46.89;102248.00;15604275;28;20107;-51
2023/09/03 15:40:17;;;;;;;5.55;1.38;;;;;;;21.43;46.58;102250.16;15563913;28;20518;-55
2023/09/03 15:47:52;;;;;;;3.25;1.10;;;;;;;21.97;47.60;102248.63;15600610;28;20545;-50
2023/09/03 15:55:27;;;;;;;5.00;1.52;;;;;;;21.78;46.81;102239.84;15605049;28;20132;-51
2023/09/03 16:03:00;;;;;;;4.18;1.30;;;;;;;21.87;48.72;102260.22;15587101;28;20386;-52
2023/09/03 16:10:36;;;;;;;3.70;1.27;;;;;;;21.70;46.60;102262.13;15605119;28;20038;-48
2023/09/03 16:18:10;;;;;;;1.90;1.20;;;;;;;21.76;47.69;102258.38;15607156;28;20061;-49
2023/09/03 16:25:47;;;;;;;2.08;1.25;;;;;;;21.64;48.14;102252.19;15576102;28;20064;-53
2023/09/03 16:33:20;;;;;;;4.00;1.38;;;;;;;21.67;47.63;102268.06;15562018;28;20126;-48
2023/09/03 16:40:56;;;;;;;3.25;1.30;;;;;;;21.46;48.42;102263.34;15605674;28;20045;-47
2023/09/03 16:48:29;;;;;;;2.30;1.13;;;;;;;21.64;47.38;102263.13;15597240;28;20372;-49
2023/09/03 16:56:04;;;;;;;2.08;1.20;;;;;;;21.37;48.72;102271.09;15604529;28;20050;-53
2023/09/03 17:03:37;;;;;;;3.00;1.40;;;;;;;21.30;49.20;102265.75;15606584;28;20045;-49
2023/09/03 17:11:12;;;;;;;3.50;1.73;;;;;;;21.36;49.99;102272.19;15611857;28;20040;-52
2023/09/03 17:18:45;;;;;;;3.78;1.60;;;;;;;20.91;51.26;102292.03;15594544;28;20045;-51
2023/09/03 17:26:20;;;;;;;1.98;1.20;;;;;;;20.84;52.17;102280.41;15619970;28;20045;-48
2023/09/03 17:33:54;;;;;;;3.30;1.40;;;;;;;20.60;53.02;102290.53;15617159;28;20059;-51
2023/09/03 17:41:29;;;;;;;3.63;1.67;;;;;;;20.34;53.73;102287.22;15618701;28;20065;-50
2023/09/03 17:49:03;;;;;;;3.58;2.10;;;;;;;20.29;53.60;102286.28;15617330;28;20418;-51
2023/09/03 17:56:37;;;;;;;3.95;2.67;;;;;;;20.00;54.93;102293.47;15616871;28;20037;-48
2023/09/03 18:04:10;;;;;;;3.83;2.22;;;;;;;19.81;55.62;102290.00;15616397;28;20053;-54
2023/09/03 18:11:46;;;;;;;2.30;1.80;;;;;;;19.70;55.16;102305.28;15613492;28;20076;-50
2023/09/03 18:19:19;;;;;;;4.70;2.40;;;;;;;19.50;57.27;102313.72;15614865;28;20136;-49
2023/09/03 18:26:53;;;;;;;5.60;3.00;;;;;;;19.37;56.95;102322.06;15589462;28;20066;-49
2023/09/03 18:34:26;;;;;;;7.88;6.40;;;;;;;19.26;56.78;102318.25;15572263;28;20356;-50
2023/09/03 18:42:19;;;;;;;8.47;5.80;;;;;;;19.08;57.84;102323.72;15603265;28;20148;-52
2023/09/03 18:49:52;;;;;;;6.75;4.82;;;;;;;19.05;58.01;102318.72;15587269;28;20136;-53
2023/09/03 18:57:27;;;;;;;5.15;3.90;;;;;;;19.03;58.77;102335.28;15593351;28;20129;-52
2023/09/03 19:05:00;;;;;;;4.05;3.35;;;;;;;18.89;59.43;102341.09;15593301;28;20054;-51
2023/09/03 19:12:36;;;;;;;21.13;15.05;;;;;;;18.51;60.53;102358.38;15603259;28;20107;-53
2023/09/03 19:20:10;;;;;;;11.95;8.30;;;;;;;18.25;61.19;102356.75;15600874;28;20387;-49
2023/09/03 19:27:45;;;;;;;6.78;4.38;;;;;;;18.12;61.00;102363.13;15594547;28;20128;-51
2023/09/03 19:35:18;;;;;;;7.22;4.00;;;;;;;17.93;62.50;102366.81;15593276;28;20147;-54
2023/09/03 19:42:53;;;;;;;;;;;;;;;17.81;63.16;102353.09;15611551;28;20108;-51
2023/09/03 19:50:26;;;;;;;6.28;3.80;;;;;;;17.60;63.58;102365.94;15600386;28;19928;-48
2023/09/03 19:58:01;;;;;;;6.07;3.60;;;;;;;17.57;63.53;102365.53;15592344;28;20506;-49
2023/09/03 20:05:34;;;;;;;5.63;3.10;;;;;;;17.13;64.78;102371.78;15594595;28;20121;-52
2023/09/03 20:13:08;;;;;;;5.65;3.50;;;;;;;17.21;65.03;102360.72;15571590;28;20107;-49
2023/09/03 20:20:41;;;;;;;5.70;3.70;;;;;;;17.09;65.05;102344.25;15599031;28;20398;-49
2023/09/03 20:28:15;;;;;;;;;;;;;;;16.94;65.75;102335.53;15562773;28;20176;-51
2023/09/03 20:35:49;;;;;;;4.13;3.15;;;;;;;16.98;65.30;102334.06;15609030;28;20048;-48
2023/09/03 20:43:26;;;;;;;6.78;3.70;;;;;;;16.81;66.01;102339.13;15599986;28;20080;-53
2023/09/03 20:51:02;;;;;;;5.63;3.58;;;;;;;16.79;66.08;102333.91;15620601;28;20065;-51
2023/09/03 20:58:41;;;;;;;6.35;3.60;;;;;;;16.58;67.17;102350.41;15614405;28;20049;-53
2023/09/03 21:06:14;;;;;;;8.40;4.75;;;;;;;16.50;66.92;102356.84;15613625;28;20137;-51
2023/09/03 21:13:48;;;;;;;7.13;4.03;;;;;;;16.27;67.74;102379.00;15617426;28;20064;-49
2023/09/03 21:21:21;;;;;;;6.30;3.75;;;;;;;16.52;66.13;102394.63;15615038;28;20037;-53
2023/09/03 21:28:55;;;;;;;;;;;;;;;16.30;67.42;102396.69;15617686;28;20045;-48
2023/09/03 21:36:28;;;;;;;14.07;8.90;;;;;;;16.16;67.58;102389.59;15616870;28;19990;-49
2023/09/03 21:44:15;;;;;;;6.80;5.32;;;;;;;16.19;67.20;102389.19;15614620;28;20442;-50
2023/09/03 21:51:49;;;;;;;7.32;4.30;;;;;;;16.11;67.66;102401.06;15604889;28;20041;-52
2023/09/03 21:59:24;;;;;;;7.28;4.18;;;;;;;15.96;67.76;102382.28;15615415;28;20033;-56
2023/09/03 22:06:57;;;;;;;6.43;4.32;;;;;;;15.80;68.55;102394.31;15616432;28;20474;-54
2023/09/03 22:14:33;;;;;;;7.20;4.50;;;;;;;15.65;69.10;102404.47;15609981;28;20369;-49
2023/09/03 22:22:08;;;;;;;7.07;4.40;;;;;;;15.73;68.50;102417.84;15611297;28;20048;-50
2023/09/03 22:29:43;;;;;;;6.85;4.35;;;;;;;15.68;68.43;102409.50;15613291;28;20034;-47
2023/09/03 22:37:17;;;;;;;5.75;4.30;;;;;;;15.56;68.79;102419.19;15608387;28;20073;-51
2023/09/03 22:44:51;;;;;;;5.43;3.60;;;;;;;15.30;69.59;102417.22;15606401;28;20586;-55
2023/09/03 22:52:24;;;;;;;6.95;4.13;;;;;;;15.50;68.67;102396.50;15612539;28;20505;-52
2023/09/03 22:59:59;;;;;;;5.65;4.35;;;;;;;15.28;69.43;102403.03;15613055;28;20038;-52
2023/09/03 23:07:31;;;;;;;5.18;3.90;;;;;;;15.18;69.48;102384.47;15612023;28;20049;-49
2023/09/03 23:15:08;;;;;;;6.60;4.32;;;;;;;15.11;69.81;102385.47;15605065;28;20051;-47
2023/09/03 23:22:45;;;;;;;6.28;4.22;;;;;;;14.92;70.49;102404.13;15612429;28;20037;-50
2023/09/03 23:30:20;;;;;;;6.53;4.43;;;;;;;14.99;70.34;102425.78;15610850;28;20044;-48
2023/09/03 23:37:53;;;;;;;5.45;4.28;;;;;;;15.14;69.37;102428.34;15605276;28;20034;-50
2023/09/03 23:45:28;;;;;;;6.18;5.00;;;;;;;14.94;70.12;102441.75;15609039;28;20056;-49
2023/09/03 23:53:01;;;;;;;5.85;4.72;;;;;;;14.85;70.45;102426.72;15608678;28;20086;-49
